X  Sluiten METAR luchtvaart weer gegevens      EHGG Eelde Airport
Temperatuur
22°C Temperatuur
19°C Dauwpunt
83% Vochtigheid



Wind
5 KM/U
3 MPH
1 M/S
3 KTS



60°
ONO
Huidig weer

Helder Helder
Luchtdruk 1011.92 (hPa) - 29.88 (inHg)
Zicht 6.2 (mijl) - 10 (km)
Vliegveld
Vliegveld code EHGG

Locatie : Eelde Airport
Afstand: 14 (km)

Metar:
EHGG 140955Z AUTO 06003KT 020V120 9999 NSC 22/19 Q1012 NOSIG

Tijd: 14-08-2020 11:55 CEST